Meath Environmental Platform

Observations for Trim Patrick St

Time AQI Temp °C Hum % Pres Pa CO μg/m³ H₂S μg/m³ NO μg/m³ NO₂ μg/m³ O₃ μg/m³ SO₂ μg/m³ PM1 μg/m³ PM2.5 μg/m³ PM10 μg/m³
Friday 7 August 2026
03:52 2 11.9 80 38,460 0.34 1.66 3.6 16.82 20.23 0 2.86 5.89 6.48
03:51 2 11.9 80 38,460 0.33 3.15 3.63 18.56 19.64 0 2 5.19 5.71
03:50 2 11.9 80 38,460 0.35 5.48 3.62 33.65 22.43 0 2.86 6.6 7.26
03:49 2 11.9 80 38,460 0.33 3.83 3.59 33.66 23.25 0 2.86 5.9 6.49
03:48 2 11.9 80 38,460 0.33 1.27 3.73 15.19 23.07 0 2.86 5.91 6.5
03:47 2 11.9 80 38,460 0.34 2.23 3.69 18.53 24.56 0 2 5.21 5.73
03:46 2 11.9 80 38,460 0.33 1.5 3.8 19.42 17.59 0 2 5.21 5.74
03:45 2 11.9 80 38,460 0.34 2.66 3.82 18.81 21.41 0 2 5.91 6.51
03:44 2 11.9 80 38,460 0.33 1.84 3.87 17.93 19.56 0 2 5.93 6.52
03:43 2 11.9 80 38,460 0.34 2.54 3.84 15.59 24.89 0 2.86 5.22 5.74
03:42 2 11.9 80 38,460 0.33 3.67 3.9 21.89 25.12 0 2.86 6.63 7.3
03:41 2 11.9 80 38,460 0.33 3.15 3.86 25.83 21.43 0 2 5.93 6.53
03:40 2 11.9 80 38,460 0.32 2.35 3.87 15.58 20.5 0 2 6.63 7.29
03:39 2 11.9 80 38,460 0.33 2.33 3.82 23.74 24.72 0 3.71 8.04 8.84
03:38 2 11.9 80 38,460 0.34 2.12 3.71 19.03 16.64 0 2 5.25 5.77
03:37 2 11.9 80 38,460 0.33 2.17 3.73 19.36 20.54 0 2.86 5.93 6.53
03:36 2 11.9 80 38,460 0.33 1.48 3.76 16.28 20.87 0 3.71 6.63 7.29
03:35 2 11.9 80 38,460 0.32 1.45 3.77 15.58 22.52 0 2 5.23 5.75
03:34 2 11.9 80 38,460 0.32 2.97 3.81 17.68 29.4 0 2 4.53 4.99
03:33 2 11.9 80 38,460 0.32 2.23 3.92 19.93 16.05 0 2 4.53 4.99